Погода Молодиловона 2 недели

Смоленская область, Россия

24 мая-06 июня
  • 24мая
    Сегодня
    +6°
    +21°
    Ясно и безоблачно
    ВремяПогодаТемператураВлажностьДавлениеВетер, м/сВероятность осадков
    00:00Ясно и безоблачно+12°C52 %751 мм3.5 м/с2 %
    03:00Ясно и безоблачно+9°C63 %752 мм2.9 м/с2 %
    06:00Ясно и безоблачно+9°C61 %753 мм2.9 м/с2 %
    09:00Практически безоблачно+16°C44 %754 мм3.8 м/с2 %
    12:00Ясно и безоблачно+19°C32 %754 мм5.4 м/с2 %
    15:00Ясно и безоблачно+21°C30 %753 мм4.9 м/с2 %
    18:00Ясно и безоблачно+20°C34 %752 мм4.3 м/с2 %
    21:00Ясно и безоблачно+15°C47 %752 мм2.6 м/с2 %
  • 25мая
    Суббота
    +9°
    +24°
    Ясно и безоблачно
    ВремяПогодаТемператураВлажностьДавлениеВетер, м/сВероятность осадков
    00:00Ясно и безоблачно+9°C60 %752 мм2.2 м/с2 %
    03:00Ясно и безоблачно+7°C67 %752 мм2.3 м/с2 %
    06:00Ясно и безоблачно+8°C68 %752 мм2.6 м/с2 %
    09:00Ясно и безоблачно+16°C50 %752 мм1.9 м/с2 %
    12:00Ясно и безоблачно+21°C38 %752 мм2.1 м/с2 %
    15:00Ясно и безоблачно+23°C35 %751 мм2.9 м/с2 %
    18:00Ясно и безоблачно+23°C36 %749 мм2.2 м/с2 %
    21:00Ясно и безоблачно+17°C63 %749 мм2.5 м/с2 %
  • 26мая
    Воскресенье
    +12°
    +25°
    Облачно с прояснениями
    ВремяПогодаТемператураВлажностьДавлениеВетер, м/сВероятность осадков
    00:00Ясно и безоблачно+11°C79 %748 мм2.1 м/с2 %
    03:00Ясно и безоблачно+10°C76 %748 мм2.3 м/с2 %
    06:00Ясно и безоблачно+11°C76 %749 мм2.4 м/с2 %
    09:00Ясно и безоблачно+19°C57 %749 мм1.3 м/с2 %
    12:00Ясно и безоблачно+24°C38 %749 мм1.9 м/с2 %
    15:00Облачно с прояснениями+25°C36 %748 мм1.9 м/с2 %
    18:00Ясно и безоблачно+24°C35 %748 мм2.0 м/с6 %
    21:00Ясно и безоблачно+20°C56 %748 мм3.1 м/с2 %
  • 27мая
    Понедельник
    +11°
    +24°
    Ясно и безоблачно
    ВремяПогодаТемператураВлажностьДавлениеВетер, м/сВероятность осадков
    00:00Практически безоблачно+15°C77 %748 мм2.3 м/с2 %
    03:00Ясно и безоблачно+13°C93 %748 мм2.2 м/с2 %
    06:00Ясно и безоблачно+13°C91 %749 мм2.7 м/с2 %
    09:00Ясно и безоблачно+20°C67 %750 мм2.6 м/с2 %
    12:00Практически безоблачно+22°C52 %750 мм2.7 м/с17 %
    15:00Ясно и безоблачно+23°C46 %749 мм2.6 м/с35 %
    18:00Практически безоблачно+23°C45 %748 мм2.7 м/с29 %
    21:00Ясно и безоблачно+19°C62 %748 мм2.5 м/с5 %
  • 28мая
    Вторник
    +9°
    +25°
    Практически безоблачно
    ВремяПогодаТемператураВлажностьДавлениеВетер, м/сВероятность осадков
    00:00Ясно и безоблачно+14°C82 %748 мм1.9 м/с2 %
    03:00Ясно и безоблачно+12°C87 %748 мм2.2 м/с2 %
    06:00Ясно и безоблачно+12°C74 %748 мм2.5 м/с2 %
    09:00Ясно и безоблачно+20°C55 %748 мм2.2 м/с2 %
    12:00Практически безоблачно+24°C42 %748 мм2.9 м/с11 %
    15:00Практически безоблачно+25°C36 %748 мм2.4 м/с4 %
    18:00Практически безоблачно+24°C37 %746 мм2.2 м/с6 %
    21:00Ясно и безоблачно+19°C53 %746 мм2.0 м/с3 %
Мы используем cookies
Соглашаюсь